Time;durP1;ratioP1;P1;durP2;ratioP2;P2;SDS_P1;SDS_P2;PMS_P1;PMS_P2;Temp;Humidity;BMP_temperature;BMP_pressure;BME280_temperature;BME280_humidity;BME280_pressure;Samples;Min_cycle;Max_cycle;Signal;HPM_P1;HPM_P2
2022/06/29 00:00:02;;;;;;;;;;;22.00;93.60;22.20;99459.00;;;;340727;28;83542;-90
2022/06/29 00:00:18;;;;;;;;;;;22.00;93.50;22.10;99475.00;;;;341468;28;91206;-89
2022/06/29 00:00:30;;;;;;;;;;;22.00;93.40;22.20;99462.00;;;;340634;28;83370;-90
2022/06/29 00:00:43;;;;;;;;;;;22.00;93.50;22.20;99464.00;;;;342994;28;90458;-89
2022/06/29 00:00:55;;;;;;;;;;;22.00;93.50;22.20;99471.00;;;;343378;28;83415;-90
2022/06/29 00:01:07;;;;;;;;;;;22.10;93.50;22.10;99463.00;;;;340226;28;91604;-89
2022/06/29 00:01:18;;;;;;;;;;;22.10;93.40;22.10;99465.00;;;;341092;28;83581;-90
2022/06/29 00:01:30;;;;;;;;;;;22.10;93.40;22.10;99462.00;;;;341619;28;90323;-89
2022/06/29 00:01:42;;;;;;;;;;;22.00;93.50;22.20;99467.00;;;;340769;28;83349;-90
2022/06/29 00:01:54;;;;;;;;;;;22.00;93.50;22.20;99472.00;;;;341605;28;90340;-89
2022/06/29 00:02:05;;;;;;;;;;;22.10;93.50;22.10;99462.00;;;;340707;28;83516;-89
2022/06/29 00:02:17;;;;;;;;;;;22.00;93.30;22.10;99469.00;;;;340044;28;92665;-90
2022/06/29 00:02:29;;;;;;;;;;;22.00;93.30;22.10;99462.00;;;;340651;28;83401;-90
2022/06/29 00:02:43;;;;;;;;;;;22.00;93.20;22.10;99465.00;;;;338980;28;89720;-90
2022/06/29 00:02:55;;;;;;;;;;;22.00;93.20;22.10;99468.00;;;;339357;28;82468;-90
2022/06/29 00:03:07;;;;;;;;;;;22.00;93.50;22.20;99464.00;;;;338976;28;91597;-90
2022/06/29 00:03:19;;;;;;;;;;;22.00;93.60;22.20;99464.00;;;;338010;28;83476;-90
2022/06/29 00:03:31;;;;;;;;;;;22.00;93.60;22.20;99461.00;;;;337532;28;90938;-89
2022/06/29 00:03:44;;;;;;;;;;;22.10;93.60;22.20;99466.00;;;;338045;28;83290;-90
2022/06/29 00:03:56;;;;;;;;;;;22.10;93.60;22.20;99464.00;;;;339019;28;91120;-90
2022/06/29 00:04:08;;;;;;;;;;;22.10;93.60;22.10;99468.00;;;;340446;28;82686;-89
2022/06/29 00:04:20;;;;;;;;;;;22.10;93.20;22.10;99462.00;;;;337870;28;92036;-90
2022/06/29 00:04:32;;;;;;;;;;;22.00;93.00;22.00;99459.00;;;;342006;28;83466;-89
2022/06/29 00:04:44;;;;;;;;;;;22.00;92.80;22.00;99470.00;;;;341500;28;92932;-89
2022/06/29 00:04:56;;;;;;;;;;;22.10;92.80;21.90;99462.00;;;;339291;28;83417;-89
2022/06/29 00:05:08;;;;;;;;;;;22.00;92.80;22.00;99462.00;;;;339986;28;90757;-89
2022/06/29 00:05:23;;;;;;;;;;;22.00;92.80;22.00;99460.00;;;;342042;28;83542;-90
2022/06/29 00:05:35;;;;;;;;;;;21.90;92.80;21.90;99454.00;;;;342953;28;90220;-89
2022/06/29 00:05:47;;;;;;;;;;;21.90;92.90;22.00;99466.00;;;;340441;28;83492;-89
2022/06/29 00:05:58;;;;;;;;;;;21.90;93.00;22.00;99456.00;;;;338863;28;91848;-89
2022/06/29 00:06:11;;;;;;;;;;;21.90;93.10;22.00;99466.00;;;;340548;28;83434;-89
2022/06/29 00:06:22;;;;;;;;;;;21.90;93.00;22.00;99458.00;;;;337579;28;91197;-89
2022/06/29 00:06:34;;;;;;;;;;;21.90;92.90;21.90;99454.00;;;;339422;28;83393;-90
2022/06/29 00:06:46;;;;;;;;;;;21.90;93.00;21.90;99461.00;;;;340208;28;91453;-90
2022/06/29 00:06:58;;;;;;;;;;;21.90;93.00;21.90;99453.00;;;;343504;28;83362;-90
2022/06/29 00:07:09;;;;;;;;;;;21.90;93.00;21.90;99453.00;;;;340278;28;90216;-89
2022/06/29 00:07:21;;;;;;;;;;;21.90;93.00;21.90;99454.00;;;;337761;28;83492;-90
2022/06/29 00:07:33;;;;;;;;;;;21.90;93.10;21.90;99460.00;;;;338892;28;90239;-89
2022/06/29 00:07:45;;;;;;;;;;;21.90;93.10;22.00;99458.00;;;;340673;28;83357;-89
2022/06/29 00:07:57;;;;;;;;;;;21.90;93.20;22.00;99458.00;;;;336323;28;91582;-89
2022/06/29 00:08:09;;;;;;;;;;;21.90;93.30;21.90;99459.00;;;;339215;28;82580;-90
2022/06/29 00:08:21;;;;;;;;;;;21.90;93.30;21.90;99456.00;;;;341630;28;91360;-90
2022/06/29 00:08:32;;;;;;;;;;;21.90;93.30;21.90;99453.00;;;;340673;28;83233;-90
2022/06/29 00:08:45;;;;;;;;;;;21.90;93.20;21.90;99454.00;;;;341385;28;90763;-89
2022/06/29 00:08:57;;;;;;;;;;;21.90;93.20;22.00;99456.00;;;;340661;28;83246;-89
2022/06/29 00:09:08;;;;;;;;;;;21.90;93.30;22.00;99462.00;;;;344113;28;90572;-89
2022/06/29 00:09:20;;;;;;;;;;;21.90;93.60;22.00;99460.00;;;;342093;28;82370;-89
2022/06/29 00:09:32;;;;;;;;;;;21.90;93.40;21.90;99458.00;;;;341402;28;90794;-89
2022/06/29 00:09:43;;;;;;;;;;;21.90;93.30;21.90;99455.00;;;;341946;28;83362;-90
2022/06/29 00:09:55;;;;;;;;;;;21.90;93.20;22.00;99461.00;;;;338963;28;90216;-89
2022/06/29 00:10:08;;;;;;;;;;;21.90;93.30;21.90;99457.00;;;;340731;28;83377;-90
2022/06/29 00:10:21;;;;;;;;;;;21.90;93.60;21.90;99452.00;;;;341685;28;91795;-90
2022/06/29 00:10:33;;;;;;;;;;;21.90;93.20;21.90;99463.00;;;;342334;28;83356;-90
2022/06/29 00:10:45;;;;;;;;;;;21.90;93.20;22.00;99457.00;;;;340582;28;91808;-90
2022/06/29 00:10:57;;;;;;;;;;;21.90;93.30;21.90;99453.00;;;;342262;28;82437;-90
2022/06/29 00:11:09;;;;;;;;;;;21.90;93.50;21.90;99455.00;;;;343256;28;90145;-89
2022/06/29 00:11:20;;;;;;;;;;;21.90;93.30;21.90;99454.00;;;;343654;28;82446;-90
2022/06/29 00:11:32;;;;;;;;;;;21.80;93.20;21.90;99458.00;;;;341765;28;89557;-90
2022/06/29 00:11:44;;;;;;;;;;;21.90;93.30;21.90;99452.00;;;;342372;28;82535;-90
2022/06/29 00:11:55;;;;;;;;;;;21.90;93.30;21.90;99456.00;;;;340611;28;91390;-90
2022/06/29 00:12:08;;;;;;;;;;;21.80;93.30;21.90;99456.00;;;;342274;28;82499;-89
2022/06/29 00:12:20;;;;;;;;;;;21.90;93.30;21.90;99456.00;;;;341552;28;90733;-89
2022/06/29 00:12:32;;;;;;;;;;;21.90;93.40;21.90;99464.00;;;;339765;28;83517;-89
2022/06/29 00:12:44;;;;;;;;;;;21.90;93.40;21.90;99457.00;;;;340551;28;91412;-89
2022/06/29 00:12:56;;;;;;;;;;;21.90;93.30;22.00;99460.00;;;;340875;28;83401;-90
2022/06/29 00:13:07;;;;;;;;;;;21.90;93.50;22.10;99463.00;;;;341674;28;90786;-89
2022/06/29 00:13:19;;;;;;;;;;;21.90;93.50;22.10;99455.00;;;;341998;28;86502;-89
2022/06/29 00:13:31;;;;;;;;;;;21.80;93.40;22.00;99457.00;;;;339958;28;90509;-89
2022/06/29 00:13:43;;;;;;;;;;;21.90;93.30;21.90;99459.00;;;;342050;28;82387;-90
2022/06/29 00:13:54;;;;;;;;;;;21.90;93.20;21.90;99460.00;;;;340218;28;89548;-89
2022/06/29 00:14:06;;;;;;;;;;;21.90;93.10;21.90;99456.00;;;;344764;28;82644;-89
2022/06/29 00:14:18;;;;;;;;;;;21.90;93.10;22.00;99465.00;;;;338865;28;92678;-89
2022/06/29 00:14:29;;;;;;;;;;;21.90;93.20;22.10;99461.00;;;;340665;28;83277;-90
2022/06/29 00:14:41;;;;;;;;;;;21.90;93.10;22.00;99457.00;;;;341618;28;90916;-90
2022/06/29 00:15:02;;;;;;;;;;;21.90;93.10;21.90;99457.00;;;;340687;28;83653;-89
2022/06/29 00:15:14;;;;;;;;;;;21.80;93.00;21.80;99453.00;;;;342955;28;90037;-89
2022/06/29 00:15:26;;;;;;;;;;;21.80;93.00;21.80;99454.00;;;;343352;28;82477;-89
2022/06/29 00:15:38;;;;;;;;;;;21.80;92.90;21.80;99452.00;;;;342871;28;91276;-90
2022/06/29 00:15:49;;;;;;;;;;;21.80;92.90;21.80;99454.00;;;;340621;28;84004;-89
2022/06/29 00:16:01;;;;;;;;;;;21.80;93.00;21.80;99453.00;;;;340210;28;91623;-89
2022/06/29 00:16:13;;;;;;;;;;;21.80;93.30;21.80;99458.00;;;;340479;28;83503;-90
2022/06/29 00:16:25;;;;;;;;;;;21.80;93.30;21.90;99458.00;;;;337386;28;92296;-89
2022/06/29 00:16:37;;;;;;;;;;;21.80;93.30;21.80;99458.00;;;;341703;28;82658;-90
2022/06/29 00:16:49;;;;;;;;;;;21.80;93.30;21.80;99465.00;;;;340201;28;91005;-89
2022/06/29 00:17:01;;;;;;;;;;;21.80;93.30;21.80;99453.00;;;;341935;28;82387;-90
2022/06/29 00:17:13;;;;;;;;;;;21.80;93.40;21.90;99450.00;;;;340231;28;91522;-90
2022/06/29 00:17:24;;;;;;;;;;;21.80;93.40;21.90;99457.00;;;;341952;28;83367;-90
2022/06/29 00:17:36;;;;;;;;;;;21.80;93.40;21.90;99452.00;;;;340102;28;90327;-90
2022/06/29 00:17:48;;;;;;;;;;;21.80;93.40;21.90;99449.00;;;;339417;28;83503;-89
2022/06/29 00:18:00;;;;;;;;;;;21.80;93.50;21.90;99448.00;;;;340352;28;91492;-89
2022/06/29 00:18:12;;;;;;;;;;;21.80;93.70;22.00;99458.00;;;;339210;28;83586;-89
2022/06/29 00:18:24;;;;;;;;;;;21.80;93.60;22.00;99454.00;;;;338848;28;92692;-90
2022/06/29 00:18:36;;;;;;;;;;;21.80;93.50;22.00;99456.00;;;;343352;28;82329;-90
2022/06/29 00:18:48;;;;;;;;;;;21.80;93.30;22.00;99444.00;;;;338796;28;90258;-90
2022/06/29 00:19:00;;;;;;;;;;;21.80;93.20;22.00;99446.00;;;;340678;28;83427;-89
2022/06/29 00:19:12;;;;;;;;;;;21.80;93.30;22.00;99455.00;;;;341644;28;90417;-89
2022/06/29 00:19:23;;;;;;;;;;;21.80;93.30;21.90;99450.00;;;;339898;28;83420;-90
2022/06/29 00:19:35;;;;;;;;;;;21.80;93.30;21.90;99447.00;;;;339270;28;90415;-89
2022/06/29 00:19:47;;;;;;;;;;;21.80;93.30;22.00;99447.00;;;;344811;28;82422;-90
2022/06/29 00:19:59;;;;;;;;;;;21.80;93.30;22.00;99451.00;;;;340396;28;90393;-89
2022/06/29 00:20:12;;;;;;;;;;;21.80;93.20;22.00;99451.00;;;;337909;28;83428;-90
2022/06/29 00:20:24;;;;;;;;;;;21.80;93.20;21.90;99444.00;;;;338883;28;93127;-90
2022/06/29 00:20:35;;;;;;;;;;;21.80;93.10;21.90;99444.00;;;;342076;28;82745;-90
2022/06/29 00:20:47;;;;;;;;;;;21.80;93.20;22.00;99444.00;;;;338844;28;90244;-90
2022/06/29 00:20:59;;;;;;;;;;;21.80;93.30;22.00;99440.00;;;;337943;28;83455;-89
2022/06/29 00:21:11;;;;;;;;;;;21.80;93.20;22.00;99453.00;;;;341419;28;90983;-90
2022/06/29 00:21:22;;;;;;;;;;;21.80;93.00;22.00;99452.00;;;;341996;28;83444;-89
2022/06/29 00:21:34;;;;;;;;;;;21.80;93.10;22.00;99447.00;;;;337629;28;87574;-89
2022/06/29 00:21:46;;;;;;;;;;;21.80;93.00;22.00;99454.00;;;;343509;28;82438;-89
2022/06/29 00:21:57;;;;;;;;;;;21.80;93.00;22.00;99448.00;;;;341601;28;91807;-89
2022/06/29 00:22:10;;;;;;;;;;;21.90;93.00;22.00;99446.00;;;;339240;28;83561;-90
2022/06/29 00:22:22;;;;;;;;;;;21.80;93.00;21.90;99451.00;;;;341418;28;90100;-90
2022/06/29 00:22:35;;;;;;;;;;;21.80;93.20;21.80;99448.00;;;;343460;28;82452;-88
2022/06/29 00:22:47;;;;;;;;;;;21.80;93.10;22.00;99450.00;;;;340026;28;90880;-90
2022/06/29 00:22:59;;;;;;;;;;;21.80;93.10;21.90;99448.00;;;;342086;28;83244;-89
2022/06/29 00:23:11;;;;;;;;;;;21.90;93.00;22.00;99452.00;;;;341640;28;89755;-89
2022/06/29 00:23:23;;;;;;;;;;;21.90;93.10;22.00;99446.00;;;;340741;28;82449;-89
2022/06/29 00:23:34;;;;;;;;;;;21.90;93.10;22.00;99444.00;;;;338700;28;91382;-89
2022/06/29 00:23:46;;;;;;;;;;;21.80;93.20;22.00;99446.00;;;;342005;28;83295;-89
2022/06/29 00:23:58;;;;;;;;;;;21.80;93.10;22.00;99447.00;;;;340298;28;91281;-89
2022/06/29 00:24:09;;;;;;;;;;;21.80;92.90;22.10;99449.00;;;;341979;28;83282;-89
2022/06/29 00:24:22;;;;;;;;;;;21.90;92.80;21.90;99446.00;;;;341550;28;89506;-89
2022/06/29 00:24:34;;;;;;;;;;;21.80;92.50;21.80;99436.00;;;;339363;28;83154;-89
2022/06/29 00:24:45;;;;;;;;;;;21.90;92.40;21.80;99443.00;;;;340077;28;90615;-90
2022/06/29 00:24:57;;;;;;;;;;;21.80;92.30;21.70;99452.00;;;;340638;28;83486;-89
2022/06/29 00:25:10;;;;;;;;;;;21.80;92.40;21.70;99452.00;;;;341658;28;89575;-89
2022/06/29 00:25:22;;;;;;;;;;;21.80;92.30;21.70;99447.00;;;;337624;28;82574;-88
2022/06/29 00:25:33;;;;;;;;;;;21.70;92.40;21.70;99450.00;;;;338875;28;89518;-89
2022/06/29 00:25:45;;;;;;;;;;;21.80;92.50;21.80;99443.00;;;;338125;28;83169;-89
2022/06/29 00:25:57;;;;;;;;;;;21.80;92.60;21.70;99446.00;;;;337618;28;89394;-89
2022/06/29 00:26:09;;;;;;;;;;;21.70;92.60;21.70;99445.00;;;;338046;28;83199;-89
2022/06/29 00:26:21;;;;;;;;;;;21.70;92.80;21.70;99453.00;;;;338913;28;89832;-89
2022/06/29 00:26:33;;;;;;;;;;;21.70;92.80;21.70;99452.00;;;;339373;28;83217;-89
2022/06/29 00:26:45;;;;;;;;;;;21.70;92.80;21.80;99448.00;;;;340217;28;88774;-89
2022/06/29 00:26:57;;;;;;;;;;;21.70;92.80;21.80;99443.00;;;;337928;28;83156;-89
2022/06/29 00:27:09;;;;;;;;;;;21.70;92.90;21.90;99445.00;;;;340366;28;88494;-90
2022/06/29 00:27:21;;;;;;;;;;;21.70;92.90;21.90;99446.00;;;;340626;28;83447;-87
2022/06/29 00:27:33;;;;;;;;;;;21.70;92.70;21.80;99451.00;;;;340291;28;89268;-89
2022/06/29 00:27:45;;;;;;;;;;;21.70;92.70;21.80;99448.00;;;;340679;28;83610;-89
2022/06/29 00:27:57;;;;;;;;;;;21.70;92.60;21.70;99445.00;;;;339031;28;88656;-89
2022/06/29 00:28:09;;;;;;;;;;;21.70;92.40;21.70;99446.00;;;;339317;28;83383;-89
2022/06/29 00:28:21;;;;;;;;;;;21.70;92.50;21.80;99443.00;;;;339172;28;90083;-89
2022/06/29 00:28:33;;;;;;;;;;;21.70;92.60;21.70;99453.00;;;;340725;28;82350;-88
2022/06/29 00:28:45;;;;;;;;;;;21.70;92.60;21.70;99447.00;;;;341554;28;88758;-89
2022/06/29 00:28:56;;;;;;;;;;;21.70;92.60;21.60;99450.00;;;;343441;28;83341;-89
2022/06/29 00:29:08;;;;;;;;;;;21.70;92.50;21.60;99449.00;;;;338761;28;91524;-89
2022/06/29 00:29:20;;;;;;;;;;;21.60;92.50;21.70;99451.00;;;;340690;28;82255;-89
2022/06/29 00:29:32;;;;;;;;;;;21.60;92.50;21.70;99447.00;;;;342946;28;88016;-89
2022/06/29 00:29:43;;;;;;;;;;;21.60;92.60;21.70;99446.00;;;;342087;28;82508;-89
2022/06/29 00:29:55;;;;;;;;;;;21.70;92.80;21.60;99451.00;;;;341650;28;89231;-89
2022/06/29 00:30:07;;;;;;;;;;;21.60;92.60;21.60;99447.00;;;;343430;28;83564;-89
2022/06/29 00:30:19;;;;;;;;;;;21.60;92.60;21.70;99445.00;;;;340153;28;92255;-89
2022/06/29 00:30:31;;;;;;;;;;;21.60;92.60;21.70;99448.00;;;;339174;28;83985;-89
2022/06/29 00:30:43;;;;;;;;;;;21.60;92.80;21.70;99445.00;;;;341580;28;88509;-89
2022/06/29 00:30:55;;;;;;;;;;;21.60;92.90;21.70;99441.00;;;;341667;28;83489;-89
2022/06/29 00:31:07;;;;;;;;;;;21.60;92.80;21.70;99455.00;;;;341693;28;89414;-89
2022/06/29 00:31:19;;;;;;;;;;;21.60;92.80;21.60;99448.00;;;;341307;28;82510;-89
2022/06/29 00:31:31;;;;;;;;;;;21.60;92.80;21.60;99452.00;;;;340027;28;88343;-89
2022/06/29 00:31:50;;;;;;;;;;;21.60;92.70;21.60;99459.00;;;;339437;28;83370;-89
2022/06/29 00:32:02;;;;;;;;;;;21.60;92.70;21.60;99452.00;;;;342807;28;90293;-88
2022/06/29 00:32:14;;;;;;;;;;;21.60;92.90;21.60;99448.00;;;;342088;28;82367;-89
2022/06/29 00:32:25;;;;;;;;;;;21.60;92.80;21.60;99452.00;;;;341634;28;88954;-90
2022/06/29 00:32:37;;;;;;;;;;;21.60;92.80;21.60;99454.00;;;;343138;28;82463;-90
2022/06/29 00:32:49;;;;;;;;;;;21.60;92.80;21.50;99459.00;;;;345388;28;92133;-89
2022/06/29 00:33:01;;;;;;;;;;;21.60;92.80;21.50;99453.00;;;;344495;28;82477;-89
2022/06/29 00:33:13;;;;;;;;;;;21.60;92.70;21.50;99451.00;;;;341764;28;89241;-90
2022/06/29 00:33:25;;;;;;;;;;;21.50;92.70;21.50;99448.00;;;;344693;28;83199;-89
2022/06/29 00:33:36;;;;;;;;;;;21.50;92.80;21.60;99457.00;;;;344423;28;89288;-89
2022/06/29 00:33:48;;;;;;;;;;;21.50;92.80;21.60;99451.00;;;;342037;28;83536;-90
2022/06/29 00:34:00;;;;;;;;;;;21.50;92.90;21.60;99443.00;;;;340428;28;89128;-89
2022/06/29 00:34:12;;;;;;;;;;;21.50;92.90;21.60;99452.00;;;;344327;28;82257;-89
2022/06/29 00:34:23;;;;;;;;;;;21.50;92.90;21.70;99455.00;;;;343516;28;88576;-89
2022/06/29 00:34:35;;;;;;;;;;;21.50;93.00;21.70;99453.00;;;;345303;28;82287;-88
2022/06/29 00:34:47;;;;;;;;;;;21.50;93.00;21.70;99443.00;;;;346215;28;88192;-86
2022/06/29 00:34:59;;;;;;;;;;;21.50;93.00;21.60;99455.00;;;;344308;28;82411;-86
2022/06/29 00:35:11;;;;;;;;;;;21.50;93.00;21.60;99447.00;;;;342005;28;90560;-86
2022/06/29 00:35:23;;;;;;;;;;;21.50;92.80;21.60;99451.00;;;;344007;28;82348;-84
2022/06/29 00:35:35;;;;;;;;;;;21.50;92.80;21.60;99445.00;;;;343743;28;88075;-85
2022/06/29 00:35:47;;;;;;;;;;;21.50;92.90;21.50;99443.00;;;;344112;28;82249;-88
2022/06/29 00:35:59;;;;;;;;;;;21.50;92.70;21.50;99445.00;;;;343483;28;88204;-90
2022/06/29 00:36:11;;;;;;;;;;;21.50;92.80;21.50;99442.00;;;;342299;28;82425;-87
2022/06/29 00:36:23;;;;;;;;;;;21.50;92.60;21.40;99450.00;;;;343524;28;91137;-87
2022/06/29 00:36:34;;;;;;;;;;;21.50;92.50;21.50;99444.00;;;;345416;28;82289;-86
2022/06/29 00:36:46;;;;;;;;;;;21.50;92.70;21.50;99437.00;;;;343310;28;90109;-88
2022/06/29 00:36:58;;;;;;;;;;;21.40;92.70;21.50;99442.00;;;;344270;28;82389;-87
2022/06/29 00:37:10;;;;;;;;;;;21.40;92.70;21.50;99444.00;;;;342225;28;87882;-88
2022/06/29 00:37:22;;;;;;;;;;;21.40;92.80;21.50;99432.00;;;;344632;28;82547;-88
2022/06/29 00:37:34;;;;;;;;;;;21.40;92.80;21.50;99443.00;;;;345710;28;87620;-89
2022/06/29 00:37:45;;;;;;;;;;;21.40;92.80;21.50;99446.00;;;;344081;28;82443;-88
2022/06/29 00:37:57;;;;;;;;;;;21.40;92.80;21.50;99446.00;;;;344877;28;91869;-89
2022/06/29 00:38:09;;;;;;;;;;;21.40;92.80;21.40;99444.00;;;;341042;28;82555;-86
2022/06/29 00:38:21;;;;;;;;;;;21.40;92.80;21.40;99437.00;;;;342824;28;87861;-89
2022/06/29 00:38:33;;;;;;;;;;;21.40;92.80;21.40;99441.00;;;;346563;28;82302;-88
2022/06/29 00:38:45;;;;;;;;;;;21.40;92.80;21.50;99440.00;;;;343505;28;88006;-87
2022/06/29 00:38:56;;;;;;;;;;;21.40;92.90;21.40;99440.00;;;;342514;28;83260;-89
2022/06/29 00:39:08;;;;;;;;;;;21.40;92.90;21.40;99445.00;;;;340185;28;90610;-90
2022/06/29 00:39:20;;;;;;;;;;;21.40;92.90;21.40;99439.00;;;;343420;28;82472;-89
2022/06/29 00:39:32;;;;;;;;;;;21.40;92.90;21.40;99446.00;;;;341580;28;89190;-89
2022/06/29 00:39:44;;;;;;;;;;;21.40;92.90;21.40;99442.00;;;;343327;28;82415;-89
2022/06/29 00:39:56;;;;;;;;;;;21.40;93.00;21.40;99443.00;;;;342773;28;92236;-89
2022/06/29 00:40:09;;;;;;;;;;;21.40;93.00;21.40;99439.00;;;;341984;28;83537;-89
2022/06/29 00:40:20;;;;;;;;;;;21.40;93.10;21.50;99437.00;;;;341023;28;90467;-89
2022/06/29 00:40:32;;;;;;;;;;;21.40;93.10;21.50;99436.00;;;;342985;28;83482;-89
2022/06/29 00:40:44;;;;;;;;;;;21.40;93.10;21.50;99443.00;;;;341369;28;92019;-89
2022/06/29 00:40:56;;;;;;;;;;;21.40;93.10;21.50;99442.00;;;;341731;28;83430;-87
2022/06/29 00:41:07;;;;;;;;;;;21.40;93.00;21.50;99437.00;;;;341721;28;87692;-89
2022/06/29 00:41:19;;;;;;;;;;;21.40;93.10;21.50;99439.00;;;;344510;28;83283;-89
2022/06/29 00:41:31;;;;;;;;;;;21.40;93.10;21.50;99442.00;;;;341617;28;89417;-89
2022/06/29 00:41:44;;;;;;;;;;;21.40;93.20;21.50;99435.00;;;;342873;28;83494;-90
2022/06/29 00:41:55;;;;;;;;;;;21.40;93.20;21.50;99440.00;;;;340218;28;90346;-89
2022/06/29 00:42:07;;;;;;;;;;;21.40;93.20;21.50;99439.00;;;;341981;28;82402;-89
2022/06/29 00:42:19;;;;;;;;;;;21.40;93.20;21.50;99432.00;;;;342972;28;90141;-89
2022/06/29 00:42:31;;;;;;;;;;;21.40;93.30;21.60;99439.00;;;;342152;28;82316;-89
2022/06/29 00:42:43;;;;;;;;;;;21.40;93.30;21.50;99434.00;;;;341594;28;89120;-90
2022/06/29 00:42:55;;;;;;;;;;;21.40;93.10;21.50;99440.00;;;;340741;28;82416;-89
2022/06/29 00:43:07;;;;;;;;;;;21.40;93.10;21.50;99436.00;;;;343111;28;88098;-89
2022/06/29 00:43:19;;;;;;;;;;;21.40;93.00;21.40;99437.00;;;;344905;28;83405;-89
2022/06/29 00:43:41;;;;;;;;;;;21.40;92.90;21.30;99441.00;;;;343856;28;89403;-89
2022/06/29 00:43:53;;;;;;;;;;;21.40;92.90;21.30;99436.00;;;;343332;28;82432;-89
2022/06/29 00:44:07;;;;;;;;;;;21.30;93.10;21.40;99429.00;;;;342975;28;89470;-89
2022/06/29 00:44:19;;;;;;;;;;;21.30;93.10;21.40;99436.00;;;;343166;28;82649;-89
2022/06/29 00:44:31;;;;;;;;;;;21.30;93.10;21.30;99432.00;;;;340034;28;91320;-89
2022/06/29 00:44:43;;;;;;;;;;;21.30;93.30;21.40;99436.00;;;;344715;28;83319;-89
2022/06/29 00:44:55;;;;;;;;;;;21.30;93.30;21.40;99439.00;;;;344374;28;88745;-89
2022/06/29 00:45:08;;;;;;;;;;;21.30;93.30;21.50;99427.00;;;;343302;28;83394;-89
2022/06/29 00:45:19;;;;;;;;;;;21.30;93.20;21.50;99435.00;;;;343037;28;88396;-89
2022/06/29 00:45:31;;;;;;;;;;;21.30;93.20;21.60;99437.00;;;;344625;28;83614;-89
2022/06/29 00:45:43;;;;;;;;;;;21.30;93.30;21.60;99427.00;;;;342960;28;89362;-89
2022/06/29 00:45:55;;;;;;;;;;;21.30;93.30;21.60;99438.00;;;;343510;28;82409;-89
2022/06/29 00:46:06;;;;;;;;;;;21.40;93.20;21.60;99437.00;;;;340224;28;88663;-89
2022/06/29 00:46:18;;;;;;;;;;;21.40;93.20;21.50;99437.00;;;;343697;28;83476;-89
2022/06/29 00:46:30;;;;;;;;;;;21.30;93.20;21.40;99443.00;;;;342634;28;90623;-90
2022/06/29 00:46:53;;;;;;;;;;;21.40;93.20;21.40;99440.00;;;;343409;28;83351;-88
2022/06/29 00:47:05;;;;;;;;;;;21.40;93.20;21.50;99431.00;;;;341614;28;89406;-89
2022/06/29 00:47:17;;;;;;;;;;;21.40;93.20;21.50;99437.00;;;;339286;28;82465;-90
2022/06/29 00:47:29;;;;;;;;;;;21.40;93.20;21.60;99436.00;;;;341582;28;89330;-89
2022/06/29 00:47:40;;;;;;;;;;;21.40;93.20;21.50;99441.00;;;;342086;28;83312;-90
2022/06/29 00:47:52;;;;;;;;;;;21.40;93.20;21.50;99428.00;;;;341570;28;89197;-89
2022/06/29 00:48:05;;;;;;;;;;;21.40;93.20;21.50;99438.00;;;;342019;28;83238;-89
2022/06/29 00:48:17;;;;;;;;;;;21.40;93.30;21.50;99437.00;;;;340301;28;88517;-90
2022/06/29 00:48:28;;;;;;;;;;;21.40;93.30;21.60;99428.00;;;;342080;28;82357;-90
2022/06/29 00:48:41;;;;;;;;;;;21.40;93.30;21.60;99423.00;;;;341562;28;90195;-90
2022/06/29 00:48:53;;;;;;;;;;;21.40;93.20;21.50;99437.00;;;;339437;28;82455;-89
2022/06/29 00:49:05;;;;;;;;;;;21.40;93.20;21.60;99434.00;;;;341725;28;88225;-90
2022/06/29 00:49:18;;;;;;;;;;;21.40;93.30;21.50;99430.00;;;;343621;28;83091;-90
2022/06/29 00:49:30;;;;;;;;;;;21.40;93.50;21.60;99429.00;;;;341296;28;89494;-89
2022/06/29 00:49:42;;;;;;;;;;;21.40;93.30;21.50;99425.00;;;;342152;28;82482;-89
2022/06/29 00:49:54;;;;;;;;;;;21.40;93.30;21.60;99428.00;;;;343191;28;88407;-89
2022/06/29 00:50:06;;;;;;;;;;;21.40;93.40;21.60;99424.00;;;;342879;28;83970;-90
2022/06/29 00:50:18;;;;;;;;;;;21.40;93.30;21.60;99432.00;;;;341780;28;88823;-89
2022/06/29 00:50:32;;;;;;;;;;;21.40;93.30;21.60;99434.00;;;;342095;28;83385;-90
2022/06/29 00:50:44;;;;;;;;;;;21.40;93.30;21.60;99433.00;;;;344344;28;89433;-89
2022/06/29 00:50:56;;;;;;;;;;;21.40;93.20;21.60;99428.00;;;;344803;28;82504;-89
2022/06/29 00:51:08;;;;;;;;;;;21.40;93.00;21.60;99427.00;;;;340344;28;88437;-89
2022/06/29 00:51:20;;;;;;;;;;;21.40;93.10;21.60;99429.00;;;;342095;28;82443;-89
2022/06/29 00:51:32;;;;;;;;;;;21.40;93.10;21.60;99431.00;;;;342808;28;90933;-89
2022/06/29 00:51:45;;;;;;;;;;;21.40;92.90;21.60;99422.00;;;;346208;28;82519;-89
2022/06/29 00:52:14;;;;;;;;;;;21.40;92.90;21.60;99425.00;;;;341621;28;87436;-90
2022/06/29 00:52:26;;;;;;;;;;;21.40;93.00;21.50;99419.00;;;;339628;28;82578;-89
2022/06/29 00:52:38;;;;;;;;;;;21.40;93.00;21.60;99428.00;;;;340084;28;88437;-89
2022/06/29 00:52:49;;;;;;;;;;;21.40;93.10;21.50;99429.00;;;;343428;28;82446;-89
2022/06/29 00:53:03;;;;;;;;;;;21.40;93.20;21.50;99426.00;;;;343003;28;90585;-89
2022/06/29 00:53:16;;;;;;;;;;;21.40;93.10;21.50;99425.00;;;;340848;28;82192;-89
2022/06/29 00:53:28;;;;;;;;;;;21.40;93.10;21.60;99431.00;;;;340250;28;89087;-89
2022/06/29 00:53:41;;;;;;;;;;;21.40;93.20;21.60;99426.00;;;;344563;28;83462;-89
2022/06/29 00:53:53;;;;;;;;;;;21.40;93.20;21.60;99432.00;;;;344366;28;89451;-89
2022/06/29 00:54:05;;;;;;;;;;;21.40;93.00;21.60;99425.00;;;;341884;28;83433;-89
2022/06/29 00:54:25;;;;;;;;;;;21.40;93.00;21.60;99431.00;;;;344045;28;89046;-89
2022/06/29 00:54:39;;;;;;;;;;;21.40;93.00;21.60;99429.00;;;;343270;28;82287;-89
2022/06/29 00:55:03;;;;;;;;;;;21.40;93.00;21.50;99426.00;;;;341519;28;88999;-89
2022/06/29 00:55:17;;;;;;;;;;;21.40;92.90;21.60;99428.00;;;;342080;28;83347;-89
2022/06/29 00:55:30;;;;;;;;;;;21.40;93.00;21.50;99415.00;;;;342358;28;89088;-90
2022/06/29 00:55:44;;;;;;;;;;;21.40;92.80;21.60;99421.00;;;;343525;28;82297;-89
2022/06/29 00:55:56;;;;;;;;;;;21.40;92.90;21.50;99422.00;;;;341655;28;88269;-89
2022/06/29 00:56:09;;;;;;;;;;;21.40;92.90;21.50;99418.00;;;;343426;28;83806;-89
2022/06/29 00:56:21;;;;;;;;;;;21.40;92.90;21.50;99427.00;;;;342853;28;91749;-89
2022/06/29 00:56:33;;;;;;;;;;;21.40;93.00;21.50;99422.00;;;;342107;28;83105;-89
2022/06/29 00:56:44;;;;;;;;;;;21.40;93.00;21.50;99420.00;;;;341580;28;89516;-89
2022/06/29 00:56:56;;;;;;;;;;;21.40;92.90;21.50;99412.00;;;;343501;28;82269;-89
2022/06/29 00:57:16;;;;;;;;;;;21.40;92.90;21.50;99423.00;;;;343107;28;87802;-90
2022/06/29 00:57:29;;;;;;;;;;;21.40;93.00;21.60;99423.00;;;;342017;28;83454;-89
2022/06/29 00:57:42;;;;;;;;;;;21.40;93.00;21.50;99427.00;;;;341588;28;90125;-89
2022/06/29 00:57:54;;;;;;;;;;;21.40;92.90;21.60;99424.00;;;;344475;28;83380;-89
2022/06/29 00:58:06;;;;;;;;;;;21.40;93.00;21.60;99422.00;;;;341449;28;90064;-89
2022/06/29 00:58:18;;;;;;;;;;;21.40;93.00;21.60;99426.00;;;;342077;28;82358;-90
2022/06/29 00:58:30;;;;;;;;;;;21.40;93.00;21.60;99424.00;;;;342944;28;88195;-89
2022/06/29 00:58:41;;;;;;;;;;;21.40;92.80;21.50;99425.00;;;;344797;28;82374;-88
2022/06/29 00:58:53;;;;;;;;;;;21.40;92.80;21.40;99418.00;;;;340246;28;88043;-89
2022/06/29 00:59:05;;;;;;;;;;;21.40;92.80;21.40;99417.00;;;;344847;28;83143;-89
2022/06/29 00:59:23;;;;;;;;;;;21.40;92.70;21.40;99419.00;;;;342530;28;91444;-89
2022/06/29 00:59:41;;;;;;;;;;;21.40;92.80;21.50;99423.00;;;;340662;28;83210;-89
2022/06/29 00:59:55;;;;;;;;;;;21.40;93.00;21.60;99428.00;;;;345751;28;89853;-89
2022/06/29 01:00:07;;;;;;;;;;;21.40;93.10;21.50;99424.00;;;;342049;28;84258;-89
2022/06/29 01:00:19;;;;;;;;;;;21.40;93.10;21.50;99419.00;;;;340232;28;87813;-89
2022/06/29 01:00:32;;;;;;;;;;;21.40;93.00;21.50;99422.00;;;;343567;28;82272;-89
2022/06/29 01:00:44;;;;;;;;;;;21.40;92.90;21.50;99431.00;;;;342836;28;89947;-89
2022/06/29 01:00:56;;;;;;;;;;;21.40;92.80;21.50;99425.00;;;;343379;28;83198;-90